• Join FlightAware (Why Join?)
  • Login
  • US Flag 
11:09PM EDT


 

Airport Tracker/Info


-or-


 

Live Flight TrackerFlight Track Log ✈ AAY846 ✈ 17-Mar-2014 ✈ KPIE - KPIA

Flight Track Log - Related Links

Times and Time Zones

All times are in EDT time to prevent confusion due to time zone crossing. See the AAY846 flight status page for this flight to view local times or setup timezone preferences in your user account.

Time Position Orientation Groundspeed Altitude Reporting Facility
EDT Latitude Longitude Course Direction KTS MPH feet Rate Location/Type
08:54AM 27.9000 -82.6833 196° South 163 188 800  Level Tampa TRACON
08:57AM 27.7992 -82.7167 196° South 186 214 4,200 1,860 Climbing Jacksonville Center
08:58AM 27.8536 -82.7681 320° Northwest 130 150 6,900 2,640 Climbing Jacksonville Center
08:59AM 27.9369 -82.7353 19° North 186 214 9,500 2,040 Climbing Jacksonville Center
09:00AM 28.0289 -82.6903 23° Northeast 283 326 11,000 1,740 Climbing Jacksonville Center
09:01AM 28.1203 -82.6150 36° Northeast 336 387 13,000 2,040 Climbing Jacksonville Center
09:02AM 28.2017 -82.5181 46° Northeast 386 444 15,100 2,040 Climbing Jacksonville Center
09:03AM 28.2867 -82.4189 46° Northeast 407 468 17,100 2,460 Climbing Jacksonville Center
09:04AM 28.3594 -82.3028 55° Northeast 432 497 20,100 2,340 Climbing Jacksonville Center
09:05AM 28.4297 -82.1914 54° Northeast 437 503 21,800 1,440 Climbing Jacksonville Center
09:06AM 28.5042 -82.0753 54° Northeast 442 509 23,000 1,560 Climbing Jacksonville Center
09:07AM 28.6078 -81.9656 43° Northeast 448 516 25,000 1,440 Climbing Jacksonville Center
09:09AM 28.8325 -81.8853 17° North 442 509 27,400 960 Climbing Jacksonville Center
09:10AM 28.9478 -81.9317 341° North 410 472 27,900 900 Climbing Jacksonville Center
09:11AM 29.0692 -81.9994 334° Northwest 415 478 29,200 1,200 Climbing Jacksonville Center
09:12AM 29.1761 -82.0625 333° Northwest 424 488 30,300 960 Climbing Jacksonville Center
09:13AM 29.2911 -82.0972 345° North 424 488 31,200 600 Climbing Jacksonville Center
09:14AM 29.4164 -82.1106 355° North 423 487 31,600 300 Climbing Jacksonville Center
09:15AM 29.5419 -82.1192 357° North 442 509 31,900 120 Climbing Jacksonville Center
09:16AM 29.6714 -82.1300 356° North 454 522 31,900  Level Jacksonville Center
09:17AM 29.7883 -82.1364 357° North 467 537 31,900 180 Level Jacksonville Center
09:18AM 29.9136 -82.1569 352° North 458 527 32,300 360 Climbing Jacksonville Center
09:19AM 30.0183 -82.2136 335° Northwest 425 489 32,700 300 Climbing Jacksonville Center
09:20AM 30.1189 -82.2731 333° Northwest 412 474 32,900 60 Climbing Jacksonville Center
09:21AM 30.2214 -82.3397 331° Northwest 412 474 32,900  Level Jacksonville Center
09:22AM 30.3242 -82.4017 333° Northwest 412 474 32,900  Level Jacksonville Center
09:23AM 30.4244 -82.4639 332° Northwest 412 474 32,900  Level Jacksonville Center
09:24AM 30.5269 -82.5261 332° Northwest 412 474 32,900  Level Jacksonville Center
09:25AM 30.6294 -82.5908 331° Northwest 412 474 32,900  Level Jacksonville Center
09:26AM 30.7297 -82.6508 333° Northwest 412 474 32,900  Level Jacksonville Center
09:27AM 30.8303 -82.7158 331° Northwest 412 474 32,900  Level Jacksonville Center
09:28AM 30.9367 -82.7786 333° Northwest 412 474 32,900  Level Jacksonville Center
09:29AM 31.0350 -82.8417 331° Northwest 412 474 32,900  Level Jacksonville Center
09:30AM 31.1392 -82.9047 333° Northwest 412 474 33,000  Climbing Jacksonville Center
09:31AM 31.2394 -82.9678 332° Northwest 412 474 33,000  Level Jacksonville Center
09:32AM 31.3500 -83.0311 334° Northwest 418 481 33,000  Level Jacksonville Center
09:33AM 31.4503 -83.1019 329° Northwest 418 481 33,000  Level Jacksonville Center
09:34AM 31.6394 -83.2217 332° Northwest 417 480 33,000  Level Atlanta Center
09:35AM 31.7483 -83.2842 334° Northwest 423 487 33,000  Level Atlanta Center
09:36AM 31.8553 -83.3519 332° Northwest 428 493 33,000  Level Atlanta Center
09:37AM 31.9600 -83.4219 330° Northwest 433 498 33,000  Level Atlanta Center
09:38AM 32.0625 -83.4850 332° Northwest 433 498 33,000  Level Atlanta Center
09:39AM 32.1653 -83.5506 332° Northwest 422 486 33,000  Level Atlanta Center
09:40AM 32.2697 -83.6189 331° Northwest 422 486 33,000  Level Atlanta Center
09:41AM 32.3764 -83.6872 332° Northwest 427 491 33,000  Level Atlanta Center
09:42AM 32.4831 -83.7581 331° Northwest 427 491 33,000  Level Atlanta Center
09:43AM 32.5875 -83.8244 332° Northwest 427 491 33,000  Level Atlanta Center
09:44AM 32.6961 -83.8931 332° Northwest 432 497 33,000  Level Atlanta Center
09:45AM 32.8028 -83.9622 331° Northwest 437 503 33,000  Level Atlanta Center
09:46AM 32.9050 -84.0289 331° Northwest 437 503 33,000  Level Atlanta Center
09:47AM 33.0072 -84.0983 330° Northwest 427 491 33,000  Level Atlanta Center
09:48AM 33.1117 -84.1678 331° Northwest 427 491 33,000  Level Atlanta Center
09:49AM 33.2139 -84.2375 330° Northwest 427 491 33,000  Level Atlanta Center
09:50AM 33.3222 -84.3047 333° Northwest 427 491 33,000  Level Atlanta Center
09:51AM 33.4264 -84.3722 332° Northwest 427 491 33,000  Level Atlanta Center
09:52AM 33.5286 -84.4400 331° Northwest 427 491 33,000  Level Atlanta Center
09:53AM 33.6328 -84.5078 332° Northwest 427 491 33,000  Level Atlanta Center
09:54AM 33.7222 -84.5658 332° Northwest 417 480 33,000  Level Atlanta Center
09:55AM 33.8219 -84.6339 330° Northwest 417 480 33,000  Level Atlanta Center
09:56AM 33.9239 -84.7022 331° Northwest 417 480 33,000  Level Atlanta Center
09:57AM 34.0319 -84.7808 329° Northwest 417 480 33,000  Level Atlanta Center
09:58AM 34.1403 -84.8444 334° Northwest 422 486 33,000  Level Atlanta Center
09:59AM 34.2400 -84.9108 331° Northwest 416 479 33,000  Level Atlanta Center
10:00AM 34.3436 -84.9822 330° Northwest 416 479 33,000  Level Atlanta Center
10:01AM 34.4456 -85.0514 331° Northwest 416 479 33,000  Level Atlanta Center
10:02AM 34.5514 -85.1208 332° Northwest 416 479 33,000  Level Atlanta Center
10:03AM 34.6383 -85.1825 330° Northwest 416 479 33,000  Level Atlanta Center
10:04AM 34.7400 -85.2547 330° Northwest 416 479 33,000  Level Atlanta Center
10:05AM 34.8456 -85.3269 331° Northwest 422 486 33,000  Level Atlanta Center
10:06AM 34.9492 -85.3969 331° Northwest 422 486 33,000  Level Atlanta Center
10:07AM 35.0508 -85.4647 331° Northwest 422 486 33,000  Level Atlanta Center
10:09AM 35.2178 -85.5808 330° Northwest 424 488 33,000  Level Memphis Center
10:10AM 35.3425 -85.6678 330° Northwest 425 489 33,000  Level Memphis Center
10:11AM 35.4475 -85.7408 330° Northwest 427 491 33,000  Level Memphis Center
10:12AM 35.5514 -85.8144 330° Northwest 427 491 33,000  Level Memphis Center
10:13AM 35.6550 -85.8869 330° Northwest 427 491 33,000  Level Memphis Center
10:14AM 35.7597 -85.9603 330° Northwest 428 493 33,000  Level Memphis Center
10:15AM 35.8669 -86.0361 330° Northwest 436 502 33,000  Level Memphis Center
10:16AM 35.9892 -86.1228 330° Northwest 435 501 33,000  Level Memphis Center
10:17AM 36.0953 -86.1975 330° Northwest 434 499 33,000  Level Memphis Center
10:18AM 36.2011 -86.2719 330° Northwest 434 499 33,000  Level Memphis Center
10:19AM 36.3075 -86.3483 330° Northwest 435 501 33,000  Level Memphis Center
10:20AM 36.4136 -86.4242 330° Northwest 437 503 33,000  Level Memphis Center
10:21AM 36.5189 -86.4997 330° Northwest 437 503 33,000  Level Memphis Center
10:22AM 36.6392 -86.5869 330° Northwest 432 497 33,000 60 Level Memphis Center
10:23AM 36.7439 -86.6622 330° Northwest 431 496 33,200 300 Climbing Memphis Center
10:24AM 36.8492 -86.7386 330° Northwest 432 497 33,700 360 Climbing Memphis Center
10:26AM 36.9553 -86.8164 330° Northwest 436 502 34,000 120 Climbing Memphis Center
10:27AM 37.0575 -86.8919 329° Northwest 431 496 34,000  Level Memphis Center
10:28AM 37.1606 -86.9672 330° Northwest 427 491 34,000  Level Memphis Center
10:29AM 37.2811 -87.0558 330° Northwest 427 491 34,000  Level Memphis Center
10:30AM 37.3828 -87.1319 329° Northwest 427 491 34,000  Level Memphis Center
10:31AM 37.5014 -87.2183 330° Northwest 422 486 34,000  Level Indianapolis Center
10:32AM 37.5972 -87.2894 330° Northwest 403 464 34,000 -480 Level Indianapolis Center
10:33AM 37.7106 -87.3739 329° Northwest 402 463 33,100 -540 Descending Indianapolis Center
10:34AM 37.8017 -87.4428 329° Northwest 396 456 33,000 -60 Descending Indianapolis Center
10:35AM 37.8961 -87.5139 329° Northwest 393 452 33,000 -360 Level Indianapolis Center
10:36AM 37.9922 -87.5847 330° Northwest 393 452 32,300 -1,020 Descending Indianapolis Center
10:37AM 38.0861 -87.6572 329° Northwest 393 452 30,900 -1,140 Descending Indianapolis Center
10:38AM 38.1778 -87.7258 330° Northwest 386 444 30,000 -720 Descending Indianapolis Center
10:39AM 38.2694 -87.7956 329° Northwest 380 437 29,500 -780 Descending Indianapolis Center
10:40AM 38.3606 -87.8661 329° Northwest 380 437 28,500 -780 Descending Indianapolis Center
10:41AM 38.4542 -87.9364 330° Northwest 381 438 28,000 -300 Descending Indianapolis Center
10:42AM 38.5672 -88.0236 329° Northwest 388 447 28,000  Level Indianapolis Center
10:43AM 38.6608 -88.0944 329° Northwest 388 447 28,000  Level Indianapolis Center
10:44AM 38.7531 -88.1661 329° Northwest 388 447 28,000  Level Indianapolis Center
10:45AM 38.8442 -88.2381 328° Northwest 388 447 28,000 -300 Level Kansas City Center
10:46AM 38.9369 -88.3094 329° Northwest 387 445 27,400 -1,140 Descending Kansas City Center
10:47AM 39.0303 -88.3817 329° Northwest 387 445 25,700 -1,740 Descending Kansas City Center
10:49AM 39.1253 -88.4558 329° Northwest 392 451 23,800 -1,800 Descending Kansas City Center
10:50AM 39.2150 -88.5228 330° Northwest 381 438 22,100 -1,680 Descending Kansas City Center
10:51AM 39.3081 -88.5975 328° Northwest 366 421 20,400 -1,740 Descending Kansas City Center
10:52AM 39.4022 -88.6717 329° Northwest 364 419 18,600 -1,680 Descending Kansas City Center
10:53AM 39.4836 -88.7350 329° Northwest 350 403 17,000 -1,500 Descending Kansas City Center
10:54AM 39.5625 -88.7983 328° Northwest 339 390 15,500 -1,560 Descending Kansas City Center
10:55AM 39.6408 -88.8611 328° Northwest 336 387 13,800 -1,620 Descending Kansas City Center
10:56AM 39.7144 -88.9206 328° Northwest 318 366 12,300 -960 Descending Kansas City Center
10:57AM 39.8033 -88.9908 329° Northwest 316 364 11,900 -180 Descending Kansas City Center
10:58AM 39.8711 -89.0469 328° Northwest 296 341 12,000  Climbing Kansas City Center
10:59AM 39.9392 -89.0994 329° Northwest 287 330 12,000  Level Kansas City Center
11:00AM 40.0078 -89.1553 328° Northwest 287 330 12,000 -420 Level Kansas City Center
11:01AM 40.0769 -89.2117 328° Northwest 290 334 11,200 -480 Descending Kansas City Center
11:02AM 40.1467 -89.2683 328° Northwest 294 338 11,100 -360 Descending Kansas City Center
11:03AM 40.2272 -89.3339 328° Northwest 289 333 10,500 -900 Descending Kansas City Center
11:04AM 40.2917 -89.3858 328° Northwest 278 320 9,300 -1,260 Descending Kansas City Center
11:05AM 40.3525 -89.4356 328° Northwest 265 305 8,000 -1,380 Descending Kansas City Center
11:06AM 40.4106 -89.4867 326° Northwest 259 298 6,400 -1,680 Descending Chicago Center
11:07AM 40.4747 -89.5536 322° Northwest 250 288 4,500 -1,860 Descending Chicago Center
11:08AM 40.5233 -89.6169 315° West 251 289 2,700 -1,080 Descending Chicago Center
11:09AM 40.5675 -89.6778 314° West 240 276 2,300 -420 Descending Chicago Center
11:10AM 40.6092 -89.7208 322° Northwest 212 244 1,900 -780 Descending Chicago Center
11:11AM 40.6478 -89.6994 23° Northeast 181 208 800 -660 Descending Chicago Center
11:12AM 40.6844 -89.6600 39° Northeast 169 194 600 -240 Descending Chicago Center